Time;durP1;ratioP1;P1;durP2;ratioP2;P2;SDS_P1;SDS_P2;PMS_P1;PMS_P2;Temp;Humidity;BMP_temperature;BMP_pressure;BME280_temperature;BME280_humidity;BME280_pressure;Samples;Min_cycle;Max_cycle;Signal;HPM_P1;HPM_P2
2023/12/05 00:01:52;;;;;;;7.93;5.70;;;;;;;;;;4974542;28;20192;-83
2023/12/05 00:04:18;;;;;;;7.63;5.93;;;;;;;;;;4974445;28;20652;-82
2023/12/05 00:06:44;;;;;;;8.60;6.27;;;;;;;;;;4990723;28;20208;-83
2023/12/05 00:09:11;;;;;;;8.27;6.33;;;;;;;;;;4967874;28;20200;-83
2023/12/05 00:11:40;;;;;;;8.13;5.80;;;;;;;;;;4952903;28;20185;-83
2023/12/05 00:14:06;;;;;;;9.13;6.00;;;;;;;;;;4971917;28;20530;-83
2023/12/05 00:16:32;;;;;;;9.10;6.13;;;;;;;;;;4976330;28;20220;-83
2023/12/05 00:18:58;;;;;;;7.87;5.90;;;;;;;;;;4992775;28;20220;-83
2023/12/05 00:21:24;;;;;;;8.90;6.50;;;;;;;;;;4963098;28;20652;-83
2023/12/05 00:23:51;;;;;;;8.30;5.87;;;;;;;;;;4976603;28;20551;-83
2023/12/05 00:26:17;;;;;;;9.40;5.93;;;;;;;;;;4976061;28;20317;-83
2023/12/05 00:28:43;;;;;;;8.27;6.07;;;;;;;;;;4990682;28;20307;-83
2023/12/05 00:31:09;;;;;;;7.77;5.63;;;;;;;;;;4975475;28;20184;-83
2023/12/05 00:33:35;;;;;;;8.33;5.87;;;;;;;;;;4992581;28;20191;-83
2023/12/05 00:36:02;;;;;;;10.30;6.10;;;;;;;;;;4993785;28;20663;-83
2023/12/05 00:38:28;;;;;;;9.53;6.00;;;;;;;;;;4968582;28;20790;-83
2023/12/05 00:40:58;;;;;;;8.40;6.00;;;;;;;;;;4991466;28;20196;-83
2023/12/05 00:43:25;;;;;;;8.17;6.27;;;;;;;;;;4973976;28;20198;-83
2023/12/05 00:45:51;;;;;;;10.77;7.10;;;;;;;;;;4975476;28;20683;-83
2023/12/05 00:48:17;;;;;;;8.60;6.50;;;;;;;;;;4974672;28;20236;-83
2023/12/05 00:50:43;;;;;;;9.13;6.47;;;;;;;;;;4976389;28;20242;-83
2023/12/05 00:53:09;;;;;;;11.63;7.07;;;;;;;;;;4972300;28;20605;-83
2023/12/05 00:55:35;;;;;;;10.37;6.87;;;;;;;;;;4974092;28;20207;-83
2023/12/05 00:58:02;;;;;;;9.67;6.43;;;;;;;;;;4991465;28;20220;-83
2023/12/05 01:00:28;;;;;;;14.67;8.83;;;;;;;;;;4979193;28;20239;-83
2023/12/05 01:02:54;;;;;;;12.77;7.80;;;;;;;;;;4973936;28;20200;-83
2023/12/05 01:05:20;;;;;;;14.53;8.33;;;;;;;;;;4979413;28;20563;-83
2023/12/05 01:07:46;;;;;;;10.83;7.50;;;;;;;;;;4995842;28;20235;-83
2023/12/05 01:10:12;;;;;;;12.67;8.23;;;;;;;;;;4986182;28;20191;-83
2023/12/05 01:12:39;;;;;;;16.53;10.43;;;;;;;;;;4976731;28;20202;-84
2023/12/05 01:15:06;;;;;;;15.97;9.13;;;;;;;;;;4975813;28;20187;-83
2023/12/05 01:17:32;;;;;;;9.80;6.97;;;;;;;;;;4995893;28;20695;-83
2023/12/05 01:19:58;;;;;;;6.43;5.20;;;;;;;;;;4977807;28;20222;-83
2023/12/05 01:22:24;;;;;;;8.00;5.93;;;;;;;;;;4977902;28;20172;-83
2023/12/05 01:24:54;;;;;;;14.20;8.03;;;;;;;;;;4976695;28;20671;-83
2023/12/05 01:27:20;;;;;;;12.70;8.30;;;;;;;;;;4973344;28;20594;-83
2023/12/05 01:29:47;;;;;;;8.10;6.20;;;;;;;;;;4993509;28;20195;-83
2023/12/05 01:32:14;;;;;;;19.77;11.37;;;;;;;;;;4976232;28;20199;-83
2023/12/05 01:34:40;;;;;;;11.67;7.77;;;;;;;;;;4964924;28;20195;-83
2023/12/05 01:37:06;;;;;;;8.27;5.63;;;;;;;;;;4973426;28;20192;-83
2023/12/05 01:39:33;;;;;;;5.90;4.83;;;;;;;;;;4993273;28;20188;-83
2023/12/05 01:41:59;;;;;;;6.40;4.97;;;;;;;;;;4993433;28;20200;-83
2023/12/05 01:44:26;;;;;;;9.87;6.30;;;;;;;;;;4989720;28;20219;-83
2023/12/05 01:46:52;;;;;;;8.03;5.07;;;;;;;;;;4992701;28;20208;-83
2023/12/05 01:49:19;;;;;;;8.10;6.07;;;;;;;;;;4976243;28;20218;-83
2023/12/05 01:51:46;;;;;;;7.20;5.80;;;;;;;;;;4970893;28;20180;-83
2023/12/05 01:54:12;;;;;;;6.63;5.17;;;;;;;;;;4991809;28;20187;-83
2023/12/05 01:56:38;;;;;;;12.77;10.20;;;;;;;;;;4975476;28;20187;-83
2023/12/05 01:59:04;;;;;;;9.60;6.73;;;;;;;;;;4993536;28;20212;-83
2023/12/05 02:01:31;;;;;;;6.50;5.23;;;;;;;;;;4972736;28;20703;-83
2023/12/05 02:03:58;;;;;;;8.70;5.80;;;;;;;;;;4991054;28;20202;-83
2023/12/05 02:06:26;;;;;;;8.00;6.13;;;;;;;;;;4991654;28;20207;-82
2023/12/05 02:08:53;;;;;;;6.87;5.50;;;;;;;;;;4975325;28;20299;-83
2023/12/05 02:11:19;;;;;;;7.73;5.60;;;;;;;;;;4975215;28;20184;-83
2023/12/05 02:13:47;;;;;;;6.83;5.27;;;;;;;;;;4974928;28;20192;-83
2023/12/05 02:16:35;;;;;;;6.17;5.00;;;;;;;;;;5006709;28;20394;-83
2023/12/05 02:19:21;;;;;;;9.47;6.50;;;;;;;;;;4974424;28;20211;-83
2023/12/05 02:21:48;;;;;;;6.67;5.23;;;;;;;;;;4990607;28;20252;-83
2023/12/05 02:24:25;;;;;;;6.90;5.57;;;;;;;;;;4974392;28;20218;-83
2023/12/05 02:26:51;;;;;;;6.90;5.40;;;;;;;;;;4974436;28;20762;-83
2023/12/05 02:29:17;;;;;;;8.20;5.77;;;;;;;;;;4997019;28;20203;-83
2023/12/05 02:31:43;;;;;;;6.73;5.53;;;;;;;;;;4961610;28;20550;-83
2023/12/05 02:34:09;;;;;;;7.07;5.67;;;;;;;;;;4978071;28;20192;-83
2023/12/05 02:36:35;;;;;;;7.67;5.60;;;;;;;;;;4978405;28;20282;-83
2023/12/05 02:39:25;;;;;;;6.20;5.47;;;;;;;;;;4992483;28;20203;-83
2023/12/05 02:41:53;;;;;;;8.20;5.43;;;;;;;;;;4992947;28;20192;-83
2023/12/05 02:44:20;;;;;;;7.37;5.73;;;;;;;;;;4991607;28;20271;-83
2023/12/05 02:46:48;;;;;;;7.93;5.90;;;;;;;;;;4988909;28;20215;-83
2023/12/05 02:49:14;;;;;;;7.97;5.77;;;;;;;;;;4968321;28;20592;-83
2023/12/05 02:51:41;;;;;;;7.40;5.60;;;;;;;;;;4988384;28;20659;-83
2023/12/05 02:54:07;;;;;;;7.30;5.70;;;;;;;;;;4970223;28;20219;-83
2023/12/05 02:56:36;;;;;;;7.77;5.40;;;;;;;;;;4981187;28;20200;-83
2023/12/05 02:59:03;;;;;;;8.90;5.80;;;;;;;;;;4989269;28;20223;-83
2023/12/05 03:01:29;;;;;;;8.27;6.13;;;;;;;;;;4968388;28;20187;-83
2023/12/05 03:03:55;;;;;;;7.47;5.73;;;;;;;;;;4962816;28;20180;-83
2023/12/05 03:06:21;;;;;;;8.40;6.10;;;;;;;;;;4970849;28;20204;-83
2023/12/05 03:08:47;;;;;;;7.80;5.67;;;;;;;;;;4971692;28;20235;-83
2023/12/05 03:11:13;;;;;;;9.63;5.97;;;;;;;;;;4988339;28;20187;-83
2023/12/05 03:13:40;;;;;;;7.20;5.90;;;;;;;;;;4972947;28;20198;-83
2023/12/05 03:16:10;;;;;;;7.03;5.43;;;;;;;;;;4988905;28;20186;-83
2023/12/05 03:18:36;;;;;;;7.00;5.53;;;;;;;;;;4989236;28;20708;-83
2023/12/05 03:21:02;;;;;;;7.30;5.30;;;;;;;;;;4988417;28;20648;-83
2023/12/05 03:23:28;;;;;;;6.57;5.40;;;;;;;;;;4988879;28;20202;-83
2023/12/05 03:25:54;;;;;;;8.77;5.90;;;;;;;;;;4988658;28;20223;-83
2023/12/05 03:28:20;;;;;;;7.33;5.90;;;;;;;;;;4988910;28;20203;-83
2023/12/05 03:30:46;;;;;;;8.00;6.03;;;;;;;;;;4988066;28;20176;-83
2023/12/05 03:33:13;;;;;;;8.70;6.27;;;;;;;;;;4972718;28;20640;-83
2023/12/05 03:35:39;;;;;;;7.67;6.10;;;;;;;;;;4956354;28;20230;-83
2023/12/05 03:38:05;;;;;;;8.37;6.27;;;;;;;;;;4976100;28;20207;-83
2023/12/05 03:40:31;;;;;;;7.47;6.23;;;;;;;;;;4989206;28;20466;-83
2023/12/05 03:42:57;;;;;;;9.33;6.33;;;;;;;;;;4970826;28;20708;-83
2023/12/05 03:45:23;;;;;;;7.87;6.47;;;;;;;;;;4972600;28;20207;-83
2023/12/05 03:47:49;;;;;;;8.17;6.70;;;;;;;;;;4972002;28;20212;-83
2023/12/05 03:50:16;;;;;;;7.13;6.10;;;;;;;;;;4990065;28;20187;-83
2023/12/05 03:52:42;;;;;;;6.57;5.60;;;;;;;;;;4992107;28;20186;-83
2023/12/05 03:55:08;;;;;;;8.47;6.10;;;;;;;;;;4992472;28;20199;-83
2023/12/05 03:57:34;;;;;;;10.33;6.70;;;;;;;;;;4992469;28;20199;-83
2023/12/05 04:00:00;;;;;;;7.90;5.63;;;;;;;;;;4970393;28;20208;-83
2023/12/05 04:02:26;;;;;;;7.53;5.50;;;;;;;;;;4993677;28;20180;-83
2023/12/05 04:04:52;;;;;;;7.00;5.70;;;;;;;;;;4991333;28;20172;-83
2023/12/05 04:07:19;;;;;;;8.50;5.80;;;;;;;;;;4975234;28;20210;-83
2023/12/05 04:09:46;;;;;;;7.67;6.27;;;;;;;;;;4992571;28;20640;-83
2023/12/05 04:12:12;;;;;;;7.53;5.80;;;;;;;;;;4976268;28;20288;-83
2023/12/05 04:14:39;;;;;;;7.23;5.40;;;;;;;;;;4976183;28;20255;-83
2023/12/05 04:17:06;;;;;;;9.00;7.00;;;;;;;;;;4972290;28;20199;-83
2023/12/05 04:19:32;;;;;;;7.20;5.80;;;;;;;;;;4991599;28;20246;-83
2023/12/05 04:21:58;;;;;;;6.30;5.40;;;;;;;;;;4975584;28;20278;-83
2023/12/05 04:24:24;;;;;;;6.73;5.23;;;;;;;;;;4980103;28;20172;-83
2023/12/05 04:26:50;;;;;;;6.20;5.10;;;;;;;;;;4974088;28;20719;-83
2023/12/05 04:29:16;;;;;;;6.97;4.93;;;;;;;;;;4969922;28;20214;-83
2023/12/05 04:31:42;;;;;;;6.70;5.30;;;;;;;;;;4976183;28;20683;-83
2023/12/05 04:34:08;;;;;;;6.20;4.97;;;;;;;;;;4972238;28;20203;-83
2023/12/05 04:36:34;;;;;;;6.43;4.93;;;;;;;;;;4974814;28;20258;-83
2023/12/05 04:39:01;;;;;;;7.27;5.10;;;;;;;;;;4990859;28;20216;-83
2023/12/05 04:41:30;;;;;;;6.90;5.20;;;;;;;;;;4992464;28;20211;-83
2023/12/05 04:43:56;;;;;;;6.23;5.07;;;;;;;;;;4976889;28;20207;-83
2023/12/05 04:46:22;;;;;;;6.27;4.87;;;;;;;;;;4959961;28;20266;-84
2023/12/05 04:48:48;;;;;;;5.90;4.80;;;;;;;;;;4976016;28;20582;-83
2023/12/05 04:51:19;;;;;;;6.57;4.77;;;;;;;;;;4974932;28;20184;-83
2023/12/05 04:53:45;;;;;;;7.67;5.10;;;;;;;;;;4983056;28;20336;-83
2023/12/05 04:56:11;;;;;;;6.60;4.60;;;;;;;;;;4982642;28;20188;-83
2023/12/05 04:58:37;;;;;;;6.40;4.83;;;;;;;;;;4991880;28;20212;-83
2023/12/05 05:01:04;;;;;;;7.07;5.20;;;;;;;;;;4989933;28;20189;-83
2023/12/05 05:03:30;;;;;;;6.33;5.20;;;;;;;;;;4977770;28;20188;-83
2023/12/05 05:05:56;;;;;;;5.93;4.70;;;;;;;;;;4977868;28;20295;-83
2023/12/05 05:08:22;;;;;;;5.83;4.70;;;;;;;;;;4978651;28;20562;-83
2023/12/05 05:10:48;;;;;;;6.00;4.60;;;;;;;;;;4966909;28;20200;-83
2023/12/05 05:13:14;;;;;;;6.10;5.03;;;;;;;;;;4978198;28;20203;-83
2023/12/05 05:15:40;;;;;;;7.00;5.10;;;;;;;;;;4994148;28;20196;-83
2023/12/05 05:18:06;;;;;;;5.97;4.80;;;;;;;;;;4993622;28;20208;-83
2023/12/05 05:20:32;;;;;;;6.90;4.80;;;;;;;;;;4986221;28;20188;-83
2023/12/05 05:22:59;;;;;;;7.20;5.03;;;;;;;;;;4975385;28;20202;-83
2023/12/05 05:25:25;;;;;;;7.07;5.13;;;;;;;;;;4975539;28;20179;-83
2023/12/05 05:27:51;;;;;;;7.70;5.37;;;;;;;;;;4992679;28;20227;-83
2023/12/05 05:30:17;;;;;;;8.83;5.90;;;;;;;;;;4994249;28;20183;-83
2023/12/05 05:32:43;;;;;;;6.73;5.20;;;;;;;;;;4993188;28;20671;-83
2023/12/05 05:35:09;;;;;;;7.27;5.13;;;;;;;;;;4992974;28;20184;-83
2023/12/05 05:37:36;;;;;;;8.37;5.07;;;;;;;;;;4974892;28;20212;-83
2023/12/05 05:40:03;;;;;;;8.03;5.17;;;;;;;;;;4976236;28;20196;-83
2023/12/05 05:42:29;;;;;;;7.03;5.17;;;;;;;;;;4975777;28;20184;-83
2023/12/05 05:44:55;;;;;;;6.87;5.17;;;;;;;;;;4992466;28;20188;-83
2023/12/05 05:47:21;;;;;;;7.37;4.97;;;;;;;;;;4975866;28;20303;-83
2023/12/05 05:49:47;;;;;;;7.20;5.10;;;;;;;;;;4975190;28;20191;-83
2023/12/05 05:52:14;;;;;;;6.50;4.70;;;;;;;;;;4986799;28;20191;-83
2023/12/05 05:54:40;;;;;;;7.20;5.10;;;;;;;;;;4973371;28;20183;-83
2023/12/05 05:57:06;;;;;;;7.03;4.67;;;;;;;;;;4990620;28;20192;-83
2023/12/05 05:59:32;;;;;;;6.17;4.90;;;;;;;;;;4974614;28;20651;-83
2023/12/05 06:01:58;;;;;;;5.77;4.60;;;;;;;;;;4972819;28;20543;-83
2023/12/05 06:04:24;;;;;;;6.43;4.37;;;;;;;;;;4975071;28;20636;-83
2023/12/05 06:06:50;;;;;;;6.30;4.23;;;;;;;;;;4979187;28;20226;-83
2023/12/05 06:09:18;;;;;;;5.38;4.30;;;;;;;;;;4973249;28;20432;-83
2023/12/05 06:11:44;;;;;;;5.37;4.20;;;;;;;;;;4987811;28;20311;-84
2023/12/05 06:14:10;;;;;;;5.90;4.07;;;;;;;;;;4974171;28;20192;-79
2023/12/05 06:16:36;;;;;;;5.33;3.87;;;;;;;;;;4974079;28;20180;-77
2023/12/05 06:19:03;;;;;;;5.90;3.97;;;;;;;;;;4991132;28;20232;-78
2023/12/05 06:21:29;;;;;;;6.47;4.17;;;;;;;;;;4990491;28;20585;-77
2023/12/05 06:23:56;;;;;;;5.10;3.70;;;;;;;;;;4973051;28;20192;-76
2023/12/05 06:26:22;;;;;;;5.07;3.30;;;;;;;;;;4988565;28;20262;-78
2023/12/05 06:28:48;;;;;;;5.50;3.70;;;;;;;;;;4990387;28;20216;-81
2023/12/05 06:31:15;;;;;;;4.17;3.10;;;;;;;;;;4984673;28;20180;-78
2023/12/05 06:33:44;;;;;;;5.23;3.30;;;;;;;;;;4956880;28;20200;-78
2023/12/05 06:36:11;;;;;;;4.10;3.10;;;;;;;;;;4991173;28;20585;-74
2023/12/05 06:38:37;;;;;;;8.10;3.60;;;;;;;;;;4990379;28;20207;-75
2023/12/05 06:41:04;;;;;;;5.87;3.60;;;;;;;;;;4987126;28;20188;-74
2023/12/05 06:43:30;;;;;;;5.53;3.07;;;;;;;;;;4989368;28;20184;-74
2023/12/05 06:45:56;;;;;;;4.10;2.93;;;;;;;;;;4985587;28;20684;-85
2023/12/05 06:48:22;;;;;;;4.07;2.78;;;;;;;;;;4971579;28;20473;-80
2023/12/05 06:50:48;;;;;;;5.33;3.10;;;;;;;;;;4972596;28;20179;-79
2023/12/05 06:53:14;;;;;;;4.90;3.13;;;;;;;;;;4990848;28;20936;-79
2023/12/05 06:55:40;;;;;;;3.87;2.80;;;;;;;;;;4989230;28;20195;-79
2023/12/05 06:58:06;;;;;;;4.83;2.73;;;;;;;;;;4990613;28;20238;-79
2023/12/05 07:00:33;;;;;;;5.80;3.00;;;;;;;;;;4992935;28;20226;-79
2023/12/05 07:02:59;;;;;;;5.23;2.73;;;;;;;;;;4991396;28;20207;-80
2023/12/05 07:05:25;;;;;;;4.70;2.90;;;;;;;;;;4991708;28;20184;-79
2023/12/05 07:07:51;;;;;;;4.80;2.60;;;;;;;;;;4984995;28;20682;-79
2023/12/05 07:10:17;;;;;;;5.40;3.03;;;;;;;;;;4990047;28;20204;-79
2023/12/05 07:12:43;;;;;;;4.87;2.73;;;;;;;;;;4974380;28;20266;-79
2023/12/05 07:15:10;;;;;;;7.73;3.00;;;;;;;;;;4991867;28;20184;-80
2023/12/05 07:17:36;;;;;;;4.93;3.07;;;;;;;;;;4990754;28;20753;-79
2023/12/05 07:20:03;;;;;;;5.40;2.53;;;;;;;;;;4976007;28;20199;-79
2023/12/05 07:22:29;;;;;;;4.23;2.53;;;;;;;;;;4992493;28;20186;-79
2023/12/05 07:24:55;;;;;;;4.27;2.47;;;;;;;;;;4962994;28;20605;-79
2023/12/05 07:27:21;;;;;;;6.63;2.40;;;;;;;;;;4991780;28;20211;-79
2023/12/05 07:29:47;;;;;;;5.50;2.70;;;;;;;;;;4993573;28;20652;-79
2023/12/05 07:32:13;;;;;;;4.87;2.40;;;;;;;;;;4993704;28;20187;-79
2023/12/05 07:34:41;;;;;;;5.23;2.47;;;;;;;;;;4994892;28;20549;-79
2023/12/05 07:37:07;;;;;;;4.20;2.00;;;;;;;;;;4996007;28;20199;-79
2023/12/05 07:39:33;;;;;;;4.47;2.20;;;;;;;;;;4979219;28;20215;-79
2023/12/05 07:42:00;;;;;;;4.43;1.90;;;;;;;;;;4993701;28;20564;-79
2023/12/05 07:44:26;;;;;;;4.37;2.10;;;;;;;;;;4992225;28;20184;-79
2023/12/05 07:46:52;;;;;;;2.27;1.80;;;;;;;;;;4976652;28;20221;-80
2023/12/05 07:49:18;;;;;;;4.73;2.43;;;;;;;;;;4973704;28;20231;-79
2023/12/05 07:51:44;;;;;;;5.67;2.03;;;;;;;;;;4993705;28;20198;-79
2023/12/05 07:54:11;;;;;;;3.27;1.90;;;;;;;;;;4976778;28;20195;-79
2023/12/05 07:56:37;;;;;;;3.43;1.80;;;;;;;;;;4976446;28;20192;-80
2023/12/05 07:59:03;;;;;;;2.90;1.90;;;;;;;;;;4993616;28;20215;-80
2023/12/05 08:01:29;;;;;;;3.77;2.17;;;;;;;;;;4994036;28;20427;-80
2023/12/05 08:03:57;;;;;;;3.83;2.00;;;;;;;;;;4991038;28;20187;-80
2023/12/05 08:06:24;;;;;;;3.77;1.77;;;;;;;;;;4995125;28;20567;-79
2023/12/05 08:08:51;;;;;;;2.83;1.83;;;;;;;;;;4977107;28;20702;-79
2023/12/05 08:11:19;;;;;;;4.87;2.20;;;;;;;;;;4995276;28;20270;-80
2023/12/05 08:13:47;;;;;;;4.37;2.00;;;;;;;;;;4994301;28;20387;-80
2023/12/05 08:16:13;;;;;;;3.00;1.80;;;;;;;;;;4976525;28;20198;-80
2023/12/05 08:18:40;;;;;;;3.67;1.97;;;;;;;;;;5000371;28;20204;-79
2023/12/05 08:21:06;;;;;;;4.13;1.87;;;;;;;;;;4993768;28;20261;-80
2023/12/05 08:23:32;;;;;;;16.27;13.70;;;;;;;;;;4992254;28;20191;-78
2023/12/05 08:25:58;;;;;;;6.97;3.97;;;;;;;;;;4992375;28;20212;-78
2023/12/05 08:28:24;;;;;;;4.80;2.90;;;;;;;;;;4993794;28;20208;-78
2023/12/05 08:30:50;;;;;;;3.17;2.03;;;;;;;;;;4991327;28;20652;-78
2023/12/05 08:33:19;;;;;;;2.50;1.80;;;;;;;;;;4992379;28;20186;-78
2023/12/05 08:35:45;;;;;;;5.00;2.03;;;;;;;;;;4993877;28;20217;-76
2023/12/05 08:38:11;;;;;;;3.60;1.77;;;;;;;;;;4994249;28;20565;-82
2023/12/05 08:40:38;;;;;;;5.50;1.80;;;;;;;;;;4994876;28;20640;-82
2023/12/05 08:43:05;;;;;;;3.50;2.47;;;;;;;;;;4976561;28;20200;-81
2023/12/05 08:45:31;;;;;;;3.43;1.90;;;;;;;;;;4992029;28;20183;-83
2023/12/05 08:47:57;;;;;;;2.20;1.70;;;;;;;;;;4992411;28;20550;-84
2023/12/05 08:50:23;;;;;;;4.50;2.10;;;;;;;;;;4957795;28;20199;-83
2023/12/05 08:52:49;;;;;;;3.13;1.70;;;;;;;;;;4998048;28;20211;-83
2023/12/05 08:55:17;;;;;;;3.47;1.73;;;;;;;;;;4981096;28;20283;-83
2023/12/05 08:57:43;;;;;;;1.97;1.50;;;;;;;;;;4995515;28;20200;-83
2023/12/05 09:00:09;;;;;;;3.00;1.77;;;;;;;;;;4979964;28;20567;-84
2023/12/05 09:02:35;;;;;;;3.23;1.70;;;;;;;;;;4994376;28;20718;-83
2023/12/05 09:05:02;;;;;;;2.73;1.50;;;;;;;;;;4993454;28;20223;-83
2023/12/05 09:07:28;;;;;;;4.47;2.10;;;;;;;;;;4976636;28;20207;-83
2023/12/05 09:09:54;;;;;;;3.80;1.60;;;;;;;;;;4978420;28;20191;-83
2023/12/05 09:12:20;;;;;;;5.23;2.43;;;;;;;;;;4979064;28;20223;-83
2023/12/05 09:14:46;;;;;;;2.83;1.80;;;;;;;;;;4976413;28;20196;-83
2023/12/05 09:17:12;;;;;;;3.77;1.90;;;;;;;;;;4976592;28;20275;-83
2023/12/05 09:19:38;;;;;;;2.57;2.00;;;;;;;;;;4978009;28;20187;-83
2023/12/05 09:22:05;;;;;;;4.40;2.00;;;;;;;;;;4977776;28;20238;-83
2023/12/05 09:24:31;;;;;;;4.77;2.90;;;;;;;;;;4993764;28;20249;-83
2023/12/05 09:26:57;;;;;;;6.90;2.83;;;;;;;;;;4975595;28;20228;-83
2023/12/05 09:29:23;;;;;;;3.47;1.80;;;;;;;;;;4975884;28;20200;-83
2023/12/05 09:31:49;;;;;;;3.60;1.90;;;;;;;;;;5004906;28;20187;-83
2023/12/05 09:34:15;;;;;;;3.00;1.80;;;;;;;;;;4992511;28;20568;-83
2023/12/05 09:36:41;;;;;;;4.33;2.23;;;;;;;;;;4993173;28;20183;-83
2023/12/05 09:39:10;;;;;;;2.67;1.57;;;;;;;;;;4976311;28;20215;-83
2023/12/05 09:41:41;;;;;;;3.30;1.60;;;;;;;;;;4987147;28;20649;-83
2023/12/05 09:44:09;;;;;;;3.23;1.60;;;;;;;;;;4975729;28;20223;-84
2023/12/05 09:46:39;;;;;;;4.10;1.50;;;;;;;;;;4975136;28;20207;-83
2023/12/05 09:49:06;;;;;;;5.37;1.83;;;;;;;;;;4991971;28;20236;-82
2023/12/05 09:51:33;;;;;;;3.47;1.97;;;;;;;;;;4977091;28;20184;-81
2023/12/05 09:54:00;;;;;;;3.30;1.70;;;;;;;;;;4992586;28;20176;-81
2023/12/05 09:56:27;;;;;;;3.63;1.90;;;;;;;;;;4976467;28;20274;-81
2023/12/05 09:58:54;;;;;;;2.70;1.70;;;;;;;;;;4994242;28;20238;-81
2023/12/05 10:01:22;;;;;;;5.73;1.80;;;;;;;;;;4976061;28;20183;-81
2023/12/05 10:03:53;;;;;;;2.90;1.80;;;;;;;;;;4978029;28;20671;-82
2023/12/05 10:06:20;;;;;;;3.27;1.60;;;;;;;;;;4993260;28;20230;-81
2023/12/05 10:08:48;;;;;;;3.33;1.60;;;;;;;;;;4971128;28;20613;-81
2023/12/05 10:11:14;;;;;;;2.43;1.40;;;;;;;;;;4987164;28;20621;-81
2023/12/05 10:13:40;;;;;;;3.67;1.40;;;;;;;;;;4992638;28;20179;-81
2023/12/05 10:16:07;;;;;;;3.90;1.77;;;;;;;;;;4978566;28;20461;-82
2023/12/05 10:18:34;;;;;;;3.70;1.83;;;;;;;;;;4994998;28;20222;-81
2023/12/05 10:21:01;;;;;;;6.27;1.80;;;;;;;;;;4996905;28;20192;-81
2023/12/05 10:23:27;;;;;;;3.73;1.70;;;;;;;;;;4981385;28;20206;-82
2023/12/05 10:25:53;;;;;;;2.90;1.80;;;;;;;;;;5008745;28;20700;-81
2023/12/05 10:28:19;;;;;;;4.60;1.70;;;;;;;;;;4978261;28;20208;-81
2023/12/05 10:30:45;;;;;;;2.77;1.63;;;;;;;;;;4993941;28;20264;-82
2023/12/05 10:33:16;;;;;;;6.17;1.87;;;;;;;;;;4978043;28;20223;-81
2023/12/05 10:35:42;;;;;;;4.03;1.80;;;;;;;;;;4994068;28;20260;-81
2023/12/05 10:38:09;;;;;;;4.87;1.57;;;;;;;;;;4976770;28;20214;-81
2023/12/05 10:40:51;;;;;;;2.50;1.60;;;;;;;;;;4978305;28;20188;-81
2023/12/05 10:43:21;;;;;;;2.63;1.30;;;;;;;;;;4977983;28;20183;-81
2023/12/05 10:45:48;;;;;;;4.63;1.70;;;;;;;;;;4976668;28;20211;-81
2023/12/05 10:48:15;;;;;;;2.40;1.47;;;;;;;;;;4996553;28;20613;-81
2023/12/05 10:50:42;;;;;;;3.10;1.40;;;;;;;;;;4995971;28;20179;-81
2023/12/05 10:53:09;;;;;;;2.97;1.37;;;;;;;;;;4978627;28;20188;-81
2023/12/05 10:55:36;;;;;;;2.77;1.43;;;;;;;;;;4981486;28;20187;-81
2023/12/05 10:58:02;;;;;;;3.10;1.47;;;;;;;;;;4978595;28;20210;-81
2023/12/05 11:00:29;;;;;;;2.57;1.40;;;;;;;;;;4996385;28;20206;-81
2023/12/05 11:02:56;;;;;;;4.53;1.40;;;;;;;;;;4978148;28;20180;-81
2023/12/05 11:05:23;;;;;;;2.50;1.50;;;;;;;;;;4978716;28;20711;-81
2023/12/05 11:07:49;;;;;;;3.07;1.50;;;;;;;;;;4994854;28;20227;-81
2023/12/05 11:10:16;;;;;;;2.20;1.50;;;;;;;;;;4979397;28;20192;-81
2023/12/05 11:12:45;;;;;;;3.10;1.53;;;;;;;;;;4979068;28;20639;-81
2023/12/05 11:15:13;;;;;;;2.20;1.40;;;;;;;;;;4993950;28;20725;-81
2023/12/05 11:17:40;;;;;;;2.67;1.43;;;;;;;;;;4977631;28;20219;-81
2023/12/05 11:20:26;;;;;;;3.67;1.40;;;;;;;;;;4995886;28;20210;-81
2023/12/05 11:23:03;;;;;;;2.03;1.20;;;;;;;;;;4994913;28;20196;-83
2023/12/05 11:25:48;;;;;;;3.30;1.40;;;;;;;;;;4995014;28;20195;-81
2023/12/05 11:28:26;;;;;;;4.23;1.50;;;;;;;;;;4977962;28;20204;-81
2023/12/05 11:31:03;;;;;;;4.20;1.57;;;;;;;;;;4976936;28;20200;-82
2023/12/05 11:33:33;;;;;;;2.87;1.40;;;;;;;;;;4994358;28;20658;-81
2023/12/05 11:36:05;;;;;;;4.23;1.50;;;;;;;;;;4994511;28;20213;-81
2023/12/05 11:38:32;;;;;;;4.50;1.40;;;;;;;;;;4976923;28;20216;-81
2023/12/05 11:41:12;;;;;;;4.33;1.47;;;;;;;;;;4994985;28;20191;-82
2023/12/05 11:43:39;;;;;;;4.23;1.30;;;;;;;;;;4994432;28;20222;-81
2023/12/05 11:46:05;;;;;;;3.77;1.47;;;;;;;;;;4976803;28;20762;-81
2023/12/05 11:48:33;;;;;;;1.77;1.10;;;;;;;;;;4993226;28;20211;-81
2023/12/05 11:51:00;;;;;;;2.60;1.40;;;;;;;;;;4977929;28;20188;-81
2023/12/05 11:53:26;;;;;;;2.57;1.37;;;;;;;;;;4994185;28;20586;-81
2023/12/05 11:55:53;;;;;;;2.67;1.40;;;;;;;;;;4976156;28;20572;-82
2023/12/05 11:58:45;;;;;;;3.73;1.70;;;;;;;;;;4992924;28;20216;-81
2023/12/05 12:01:14;;;;;;;4.17;1.83;;;;;;;;;;4976282;28;20624;-81
2023/12/05 12:03:45;;;;;;;3.63;1.73;;;;;;;;;;4956934;28;20197;-81
2023/12/05 12:06:11;;;;;;;2.40;1.50;;;;;;;;;;4992601;28;20239;-81
2023/12/05 12:08:38;;;;;;;2.50;1.20;;;;;;;;;;4994330;28;20214;-81
2023/12/05 12:11:04;;;;;;;1.67;1.10;;;;;;;;;;4995041;28;20191;-81
2023/12/05 12:13:30;;;;;;;2.43;1.20;;;;;;;;;;4980423;28;20199;-81
2023/12/05 12:15:57;;;;;;;3.27;1.40;;;;;;;;;;4979727;28;20195;-80
2023/12/05 12:18:25;;;;;;;4.43;1.40;;;;;;;;;;4980207;28;20199;-80
2023/12/05 12:20:51;;;;;;;1.57;1.10;;;;;;;;;;4996868;28;20559;-79
2023/12/05 12:23:17;;;;;;;3.53;1.23;;;;;;;;;;4981033;28;20191;-78
2023/12/05 12:25:55;;;;;;;2.93;1.20;;;;;;;;;;4995225;28;20211;-80
2023/12/05 12:28:29;;;;;;;2.87;1.40;;;;;;;;;;4993753;28;20283;-80
2023/12/05 12:30:58;;;;;;;2.77;1.30;;;;;;;;;;4996075;28;20283;-80
2023/12/05 12:33:35;;;;;;;3.17;1.57;;;;;;;;;;4990542;28;20207;-80
2023/12/05 12:36:02;;;;;;;2.43;1.47;;;;;;;;;;4996021;28;20274;-81
2023/12/05 12:38:28;;;;;;;2.03;1.30;;;;;;;;;;4979833;28;20210;-80
2023/12/05 12:40:55;;;;;;;1.70;1.10;;;;;;;;;;4993422;28;20187;-79
2023/12/05 12:43:22;;;;;;;2.20;1.20;;;;;;;;;;4992076;28;20702;-78
2023/12/05 12:45:48;;;;;;;1.90;1.20;;;;;;;;;;4992366;28;20484;-76
2023/12/05 12:48:15;;;;;;;3.30;1.30;;;;;;;;;;4992157;28;20210;-79
2023/12/05 12:50:41;;;;;;;2.20;1.30;;;;;;;;;;4995047;28;20185;-81
2023/12/05 12:53:08;;;;;;;2.17;1.20;;;;;;;;;;4973562;28;20189;-80
2023/12/05 12:55:34;;;;;;;2.03;1.10;;;;;;;;;;4972956;28;20206;-80
2023/12/05 12:58:00;;;;;;;3.37;1.30;;;;;;;;;;4987357;28;20227;-80
2023/12/05 13:00:26;;;;;;;3.07;1.30;;;;;;;;;;4991575;28;20674;-80
2023/12/05 13:02:56;;;;;;;1.97;1.40;;;;;;;;;;4974467;28;20255;-80
2023/12/05 13:05:32;;;;;;;2.43;1.50;;;;;;;;;;4996642;28;20191;-80
2023/12/05 13:07:58;;;;;;;2.30;1.30;;;;;;;;;;4994699;28;20594;-80
2023/12/05 13:10:25;;;;;;;2.63;1.20;;;;;;;;;;4976716;28;20286;-80
2023/12/05 13:12:51;;;;;;;2.97;1.40;;;;;;;;;;4975970;28;20224;-80
2023/12/05 13:15:25;;;;;;;1.97;1.20;;;;;;;;;;4996157;28;20186;-80
2023/12/05 13:18:04;;;;;;;2.30;1.00;;;;;;;;;;4982450;28;20211;-80
2023/12/05 13:20:31;;;;;;;2.50;1.23;;;;;;;;;;5002494;28;20186;-80
2023/12/05 13:22:58;;;;;;;3.17;1.23;;;;;;;;;;4985657;28;20255;-80
2023/12/05 13:25:24;;;;;;;1.83;1.30;;;;;;;;;;4993755;28;20202;-80
2023/12/05 13:27:51;;;;;;;2.33;1.27;;;;;;;;;;5005207;28;20302;-80
2023/12/05 13:30:17;;;;;;;2.17;1.10;;;;;;;;;;4976781;28;20192;-80
2023/12/05 13:32:44;;;;;;;1.57;1.30;;;;;;;;;;4977573;28;20554;-79
2023/12/05 13:35:11;;;;;;;2.40;1.33;;;;;;;;;;4995221;28;20184;-79
2023/12/05 13:37:37;;;;;;;1.97;1.40;;;;;;;;;;4993628;28;20211;-79
2023/12/05 13:40:04;;;;;;;2.27;1.73;;;;;;;;;;4977626;28;20193;-79
2023/12/05 13:42:30;;;;;;;1.97;1.43;;;;;;;;;;4970168;28;20671;-79
2023/12/05 13:44:56;;;;;;;2.47;1.37;;;;;;;;;;4975735;28;20200;-79
2023/12/05 13:47:23;;;;;;;2.23;1.40;;;;;;;;;;4985600;28;20742;-78
2023/12/05 13:49:50;;;;;;;2.03;1.40;;;;;;;;;;4987328;28;20195;-79
2023/12/05 13:52:16;;;;;;;3.43;2.00;;;;;;;;;;4976029;28;20558;-78
2023/12/05 13:54:42;;;;;;;2.33;1.70;;;;;;;;;;4977697;28;20191;-79
2023/12/05 13:57:08;;;;;;;3.17;1.50;;;;;;;;;;4993929;28;20182;-79
2023/12/05 13:59:34;;;;;;;1.80;1.43;;;;;;;;;;4991915;28;20235;-80
2023/12/05 14:02:02;;;;;;;2.13;1.50;;;;;;;;;;4997768;28;20242;-79
2023/12/05 14:04:28;;;;;;;1.97;1.40;;;;;;;;;;4991824;28;20420;-79
2023/12/05 14:06:54;;;;;;;7.20;1.73;;;;;;;;;;4979556;28;20211;-79
2023/12/05 14:09:20;;;;;;;3.27;1.60;;;;;;;;;;4990665;28;20514;-78
2023/12/05 14:11:46;;;;;;;3.20;1.90;;;;;;;;;;4992228;28;20196;-78
2023/12/05 14:14:14;;;;;;;3.07;2.37;;;;;;;;;;4991930;28;20246;-78
2023/12/05 14:16:40;;;;;;;2.90;1.50;;;;;;;;;;4992578;28;20648;-79
2023/12/05 14:19:07;;;;;;;2.77;1.63;;;;;;;;;;4992280;28;21046;-79
2023/12/05 14:21:33;;;;;;;2.70;1.50;;;;;;;;;;4994690;28;20179;-79
2023/12/05 14:23:59;;;;;;;3.50;1.67;;;;;;;;;;4995220;28;20207;-80
2023/12/05 14:26:25;;;;;;;2.40;1.60;;;;;;;;;;4999062;28;20215;-80
2023/12/05 14:28:51;;;;;;;6.10;1.53;;;;;;;;;;4990277;28;20207;-80
2023/12/05 14:31:17;;;;;;;4.20;2.43;;;;;;;;;;4992765;28;20183;-79
2023/12/05 14:33:44;;;;;;;2.80;1.50;;;;;;;;;;4990820;28;20198;-80
2023/12/05 14:36:10;;;;;;;3.97;1.73;;;;;;;;;;4995996;28;20210;-80
2023/12/05 14:38:36;;;;;;;5.27;1.87;;;;;;;;;;4992006;28;20196;-79
2023/12/05 14:41:03;;;;;;;2.60;1.80;;;;;;;;;;4966818;28;20196;-80
2023/12/05 14:43:29;;;;;;;3.53;2.10;;;;;;;;;;4984706;28;20278;-79